Morgan, Utah
Current Conditions -  °F | °C
As of 9:58 AM on Thursday 23 Oct 2014 (Local Time) from KHIF Reporting Station
Overcast Overcast  
Wind Chill: 54°   Ceiling: 15000
Heat Index: 54°   Visibility: 10mi
Dew Point: 28°   Wind: 12mph
Humidity: 38%   Direction: 110°ESE
Pressure: 30.16"   Gusts: NA
Location:  41.04°N, 111.68°W
Report Text: KHIF 231558Z AUTO 11010KT 10SM OVC150 12/M02 A3016 RMK AO2 SLP188 T01211020
Loading
Personal Weather Stations






























Interactive Weather Map
Tropical Storm Tracking
New forecast layout! Learn more

10-Day Weather Forecast

Advertisements
Track Severe Weather on mobile